sensor_id;sensor_type;location;lat;lon;timestamp;temperature;humidity
71978;DHT22;59848;48.158;11.512;2022-08-25T00:00:20;18.50;77.00
71978;DHT22;59848;48.158;11.512;2022-08-25T00:02:46;18.40;77.10
71978;DHT22;59848;48.158;11.512;2022-08-25T00:05:12;18.40;77.50
71978;DHT22;59848;48.158;11.512;2022-08-25T00:07:37;18.40;77.30
71978;DHT22;59848;48.158;11.512;2022-08-25T00:10:05;18.30;77.50
71978;DHT22;59848;48.158;11.512;2022-08-25T00:12:30;18.30;78.00
71978;DHT22;59848;48.158;11.512;2022-08-25T00:14:56;18.20;77.70
71978;DHT22;59848;48.158;11.512;2022-08-25T00:17:22;18.20;78.20
71978;DHT22;59848;48.158;11.512;2022-08-25T00:19:47;18.20;78.80
71978;DHT22;59848;48.158;11.512;2022-08-25T00:22:13;18.20;78.90
71978;DHT22;59848;48.158;11.512;2022-08-25T00:24:39;18.20;78.80
71978;DHT22;59848;48.158;11.512;2022-08-25T00:27:05;18.20;78.90
71978;DHT22;59848;48.158;11.512;2022-08-25T00:29:31;18.10;78.90
71978;DHT22;59848;48.158;11.512;2022-08-25T00:31:58;18.00;79.20
71978;DHT22;59848;48.158;11.512;2022-08-25T00:34:31;17.90;79.50
71978;DHT22;59848;48.158;11.512;2022-08-25T00:36:58;17.90;79.50
71978;DHT22;59848;48.158;11.512;2022-08-25T00:39:25;17.90;79.90
71978;DHT22;59848;48.158;11.512;2022-08-25T00:41:54;17.80;80.30
71978;DHT22;59848;48.158;11.512;2022-08-25T00:44:21;17.70;80.20
71978;DHT22;59848;48.158;11.512;2022-08-25T00:46:50;17.70;80.10
71978;DHT22;59848;48.158;11.512;2022-08-25T00:49:26;17.70;80.60
71978;DHT22;59848;48.158;11.512;2022-08-25T00:52:00;17.60;80.40
71978;DHT22;59848;48.158;11.512;2022-08-25T00:54:33;17.60;80.30
71978;DHT22;59848;48.158;11.512;2022-08-25T00:57:00;17.50;80.80
71978;DHT22;59848;48.158;11.512;2022-08-25T00:59:28;17.50;81.20
71978;DHT22;59848;48.158;11.512;2022-08-25T01:01:55;17.50;80.80
71978;DHT22;59848;48.158;11.512;2022-08-25T01:04:21;17.40;81.00
71978;DHT22;59848;48.158;11.512;2022-08-25T01:06:47;17.30;80.80
71978;DHT22;59848;48.158;11.512;2022-08-25T01:09:13;17.30;81.40
71978;DHT22;59848;48.158;11.512;2022-08-25T01:11:41;17.30;81.30
71978;DHT22;59848;48.158;11.512;2022-08-25T01:14:08;17.20;81.10
71978;DHT22;59848;48.158;11.512;2022-08-25T01:16:37;17.20;81.60
71978;DHT22;59848;48.158;11.512;2022-08-25T01:19:07;17.30;81.50
71978;DHT22;59848;48.158;11.512;2022-08-25T01:21:41;17.20;81.50
71978;DHT22;59848;48.158;11.512;2022-08-25T01:24:13;17.20;82.00
71978;DHT22;59848;48.158;11.512;2022-08-25T01:26:40;17.20;81.90
71978;DHT22;59848;48.158;11.512;2022-08-25T01:29:08;17.20;81.80
71978;DHT22;59848;48.158;11.512;2022-08-25T01:31:47;17.20;81.60
71978;DHT22;59848;48.158;11.512;2022-08-25T01:34:13;17.10;81.80
71978;DHT22;59848;48.158;11.512;2022-08-25T01:36:41;17.00;81.80
71978;DHT22;59848;48.158;11.512;2022-08-25T01:39:08;17.00;83.00
71978;DHT22;59848;48.158;11.512;2022-08-25T01:41:35;17.20;83.00
71978;DHT22;59848;48.158;11.512;2022-08-25T01:44:04;17.10;82.80
71978;DHT22;59848;48.158;11.512;2022-08-25T01:46:32;17.10;82.40
71978;DHT22;59848;48.158;11.512;2022-08-25T01:49:03;17.10;82.70
71978;DHT22;59848;48.158;11.512;2022-08-25T01:51:33;17.00;83.00
71978;DHT22;59848;48.158;11.512;2022-08-25T01:53:59;17.00;82.60
71978;DHT22;59848;48.158;11.512;2022-08-25T01:56:24;17.00;82.60
71978;DHT22;59848;48.158;11.512;2022-08-25T01:58:50;16.90;82.70
71978;DHT22;59848;48.158;11.512;2022-08-25T02:01:21;16.90;83.10
71978;DHT22;59848;48.158;11.512;2022-08-25T02:03:49;16.80;82.80
71978;DHT22;59848;48.158;11.512;2022-08-25T02:06:25;16.80;83.20
71978;DHT22;59848;48.158;11.512;2022-08-25T02:08:55;16.80;83.20
71978;DHT22;59848;48.158;11.512;2022-08-25T02:11:21;16.80;83.50
71978;DHT22;59848;48.158;11.512;2022-08-25T02:13:49;16.80;83.40
71978;DHT22;59848;48.158;11.512;2022-08-25T02:16:20;16.90;83.80
71978;DHT22;59848;48.158;11.512;2022-08-25T02:18:47;16.80;83.60
71978;DHT22;59848;48.158;11.512;2022-08-25T02:21:13;16.90;83.80
71978;DHT22;59848;48.158;11.512;2022-08-25T02:23:39;16.90;83.70
71978;DHT22;59848;48.158;11.512;2022-08-25T02:26:06;16.90;83.40
71978;DHT22;59848;48.158;11.512;2022-08-25T02:28:32;16.90;83.60
71978;DHT22;59848;48.158;11.512;2022-08-25T02:30:57;16.90;83.60
71978;DHT22;59848;48.158;11.512;2022-08-25T02:33:23;16.90;83.50
71978;DHT22;59848;48.158;11.512;2022-08-25T02:35:49;16.90;83.70
71978;DHT22;59848;48.158;11.512;2022-08-25T02:38:15;17.00;83.70
71978;DHT22;59848;48.158;11.512;2022-08-25T02:40:40;17.00;83.50
71978;DHT22;59848;48.158;11.512;2022-08-25T02:43:06;17.00;83.60
71978;DHT22;59848;48.158;11.512;2022-08-25T02:45:31;17.00;83.50
71978;DHT22;59848;48.158;11.512;2022-08-25T02:47:57;17.00;83.80
71978;DHT22;59848;48.158;11.512;2022-08-25T02:50:23;17.00;83.60
71978;DHT22;59848;48.158;11.512;2022-08-25T02:52:49;17.00;83.90
71978;DHT22;59848;48.158;11.512;2022-08-25T02:55:16;17.00;83.90
71978;DHT22;59848;48.158;11.512;2022-08-25T02:57:42;17.00;84.00
71978;DHT22;59848;48.158;11.512;2022-08-25T03:00:10;17.00;83.60
71978;DHT22;59848;48.158;11.512;2022-08-25T03:02:36;16.90;83.50
71978;DHT22;59848;48.158;11.512;2022-08-25T03:05:03;17.00;83.70
71978;DHT22;59848;48.158;11.512;2022-08-25T03:07:29;16.90;83.60
71978;DHT22;59848;48.158;11.512;2022-08-25T03:09:55;16.90;83.90
71978;DHT22;59848;48.158;11.512;2022-08-25T03:12:20;16.90;83.70
71978;DHT22;59848;48.158;11.512;2022-08-25T03:14:47;17.00;84.10
71978;DHT22;59848;48.158;11.512;2022-08-25T03:17:13;16.90;83.70
71978;DHT22;59848;48.158;11.512;2022-08-25T03:19:39;16.90;83.60
71978;DHT22;59848;48.158;11.512;2022-08-25T03:22:04;16.80;83.40
71978;DHT22;59848;48.158;11.512;2022-08-25T03:24:30;16.80;83.70
71978;DHT22;59848;48.158;11.512;2022-08-25T03:26:55;16.70;83.40
71978;DHT22;59848;48.158;11.512;2022-08-25T03:29:27;16.70;84.20
71978;DHT22;59848;48.158;11.512;2022-08-25T03:31:53;16.90;84.40
71978;DHT22;59848;48.158;11.512;2022-08-25T03:34:21;16.70;83.80
71978;DHT22;59848;48.158;11.512;2022-08-25T03:36:48;16.80;83.80
71978;DHT22;59848;48.158;11.512;2022-08-25T03:39:16;16.70;84.30
71978;DHT22;59848;48.158;11.512;2022-08-25T03:41:42;16.70;84.50
71978;DHT22;59848;48.158;11.512;2022-08-25T03:44:09;16.70;84.40
71978;DHT22;59848;48.158;11.512;2022-08-25T03:46:43;16.70;84.10
71978;DHT22;59848;48.158;11.512;2022-08-25T03:49:12;16.70;84.20
71978;DHT22;59848;48.158;11.512;2022-08-25T03:51:43;16.70;84.30
71978;DHT22;59848;48.158;11.512;2022-08-25T03:54:14;16.60;84.10
71978;DHT22;59848;48.158;11.512;2022-08-25T03:56:41;16.60;84.30
71978;DHT22;59848;48.158;11.512;2022-08-25T03:59:06;16.60;84.50
71978;DHT22;59848;48.158;11.512;2022-08-25T04:01:39;16.70;84.70
71978;DHT22;59848;48.158;11.512;2022-08-25T04:04:06;16.70;84.50
71978;DHT22;59848;48.158;11.512;2022-08-25T04:06:32;16.60;84.40
71978;DHT22;59848;48.158;11.512;2022-08-25T04:08:58;16.60;84.80
71978;DHT22;59848;48.158;11.512;2022-08-25T04:11:25;16.60;84.60
71978;DHT22;59848;48.158;11.512;2022-08-25T04:13:52;16.60;84.60
71978;DHT22;59848;48.158;11.512;2022-08-25T04:16:23;16.60;84.70
71978;DHT22;59848;48.158;11.512;2022-08-25T04:18:51;16.60;84.90
71978;DHT22;59848;48.158;11.512;2022-08-25T04:21:18;16.60;84.80
71978;DHT22;59848;48.158;11.512;2022-08-25T04:23:45;16.60;85.00
71978;DHT22;59848;48.158;11.512;2022-08-25T04:26:25;16.60;85.10
71978;DHT22;59848;48.158;11.512;2022-08-25T04:28:52;16.70;84.80
71978;DHT22;59848;48.158;11.512;2022-08-25T04:31:19;16.70;84.60
71978;DHT22;59848;48.158;11.512;2022-08-25T04:33:44;16.70;84.80
71978;DHT22;59848;48.158;11.512;2022-08-25T04:36:15;16.70;84.70
71978;DHT22;59848;48.158;11.512;2022-08-25T04:38:41;16.70;84.80
71978;DHT22;59848;48.158;11.512;2022-08-25T04:41:09;16.70;85.10
71978;DHT22;59848;48.158;11.512;2022-08-25T04:43:35;16.70;85.00
71978;DHT22;59848;48.158;11.512;2022-08-25T04:46:07;16.70;84.60
71978;DHT22;59848;48.158;11.512;2022-08-25T04:48:33;16.70;84.70
71978;DHT22;59848;48.158;11.512;2022-08-25T04:51:03;16.70;84.90
71978;DHT22;59848;48.158;11.512;2022-08-25T04:53:29;16.80;85.00
71978;DHT22;59848;48.158;11.512;2022-08-25T04:55:54;16.80;84.90
71978;DHT22;59848;48.158;11.512;2022-08-25T04:58:20;16.90;84.80
71978;DHT22;59848;48.158;11.512;2022-08-25T05:00:45;17.00;85.00
71978;DHT22;59848;48.158;11.512;2022-08-25T05:03:11;17.10;84.90
71978;DHT22;59848;48.158;11.512;2022-08-25T05:05:37;17.20;85.00
71978;DHT22;59848;48.158;11.512;2022-08-25T05:08:04;17.20;84.90
71978;DHT22;59848;48.158;11.512;2022-08-25T05:10:30;17.30;84.80
71978;DHT22;59848;48.158;11.512;2022-08-25T05:12:56;17.50;84.50
71978;DHT22;59848;48.158;11.512;2022-08-25T05:15:21;17.60;84.30
71978;DHT22;59848;48.158;11.512;2022-08-25T05:18:07;17.70;84.10
71978;DHT22;59848;48.158;11.512;2022-08-25T05:20:35;17.90;83.60
71978;DHT22;59848;48.158;11.512;2022-08-25T05:23:02;18.00;83.20
71978;DHT22;59848;48.158;11.512;2022-08-25T05:25:27;18.10;82.80
71978;DHT22;59848;48.158;11.512;2022-08-25T05:27:53;18.20;81.70
71978;DHT22;59848;48.158;11.512;2022-08-25T05:30:18;18.40;81.40
71978;DHT22;59848;48.158;11.512;2022-08-25T05:32:44;18.50;80.90
71978;DHT22;59848;48.158;11.512;2022-08-25T05:35:09;18.60;80.10
71978;DHT22;59848;48.158;11.512;2022-08-25T05:37:35;18.70;79.80
71978;DHT22;59848;48.158;11.512;2022-08-25T05:40:03;18.80;79.70
71978;DHT22;59848;48.158;11.512;2022-08-25T05:42:30;18.90;78.80
71978;DHT22;59848;48.158;11.512;2022-08-25T05:44:55;19.10;78.80
71978;DHT22;59848;48.158;11.512;2022-08-25T05:47:21;19.10;78.30
71978;DHT22;59848;48.158;11.512;2022-08-25T05:49:46;19.20;78.10
71978;DHT22;59848;48.158;11.512;2022-08-25T05:52:12;19.40;78.60
71978;DHT22;59848;48.158;11.512;2022-08-25T05:54:38;19.40;77.00
71978;DHT22;59848;48.158;11.512;2022-08-25T05:57:05;19.50;77.20
71978;DHT22;59848;48.158;11.512;2022-08-25T05:59:30;19.60;76.90
71978;DHT22;59848;48.158;11.512;2022-08-25T06:01:56;19.70;76.10
71978;DHT22;59848;48.158;11.512;2022-08-25T06:04:40;19.80;75.70
71978;DHT22;59848;48.158;11.512;2022-08-25T06:07:06;19.90;76.20
71978;DHT22;59848;48.158;11.512;2022-08-25T06:09:31;19.90;75.00
71978;DHT22;59848;48.158;11.512;2022-08-25T06:11:57;20.00;75.60
71978;DHT22;59848;48.158;11.512;2022-08-25T06:14:23;20.20;76.00
71978;DHT22;59848;48.158;11.512;2022-08-25T06:16:49;20.20;74.90
71978;DHT22;59848;48.158;11.512;2022-08-25T06:19:16;20.20;73.90
71978;DHT22;59848;48.158;11.512;2022-08-25T06:21:42;20.30;74.60
71978;DHT22;59848;48.158;11.512;2022-08-25T06:24:09;20.30;73.60
71978;DHT22;59848;48.158;11.512;2022-08-25T06:26:35;20.50;74.50
71978;DHT22;59848;48.158;11.512;2022-08-25T06:29:01;20.70;73.80
71978;DHT22;59848;48.158;11.512;2022-08-25T06:31:27;20.70;72.10
71978;DHT22;59848;48.158;11.512;2022-08-25T06:33:52;20.70;71.70
71978;DHT22;59848;48.158;11.512;2022-08-25T06:36:18;20.80;71.10
71978;DHT22;59848;48.158;11.512;2022-08-25T06:38:45;20.70;72.00
71978;DHT22;59848;48.158;11.512;2022-08-25T06:41:11;21.00;70.20
71978;DHT22;59848;48.158;11.512;2022-08-25T06:43:39;21.20;69.90
71978;DHT22;59848;48.158;11.512;2022-08-25T06:46:17;21.20;69.10
71978;DHT22;59848;48.158;11.512;2022-08-25T06:48:43;21.00;69.50
71978;DHT22;59848;48.158;11.512;2022-08-25T06:51:11;21.00;69.70
71978;DHT22;59848;48.158;11.512;2022-08-25T06:53:37;21.30;69.20
71978;DHT22;59848;48.158;11.512;2022-08-25T06:56:03;21.50;69.00
71978;DHT22;59848;48.158;11.512;2022-08-25T06:58:29;21.70;68.10
71978;DHT22;59848;48.158;11.512;2022-08-25T07:00:54;21.70;67.90
71978;DHT22;59848;48.158;11.512;2022-08-25T07:03:20;21.70;68.20
71978;DHT22;59848;48.158;11.512;2022-08-25T07:05:52;21.80;67.60
71978;DHT22;59848;48.158;11.512;2022-08-25T07:08:19;22.00;67.00
71978;DHT22;59848;48.158;11.512;2022-08-25T07:10:45;21.90;66.30
71978;DHT22;59848;48.158;11.512;2022-08-25T07:13:12;22.00;66.70
71978;DHT22;59848;48.158;11.512;2022-08-25T07:15:38;22.00;66.20
71978;DHT22;59848;48.158;11.512;2022-08-25T07:18:05;22.10;65.40
71978;DHT22;59848;48.158;11.512;2022-08-25T07:20:30;22.20;65.40
71978;DHT22;59848;48.158;11.512;2022-08-25T07:22:57;22.30;65.20
71978;DHT22;59848;48.158;11.512;2022-08-25T07:25:23;22.50;64.50
71978;DHT22;59848;48.158;11.512;2022-08-25T07:27:49;22.60;64.80
71978;DHT22;59848;48.158;11.512;2022-08-25T07:30:16;22.70;64.20
71978;DHT22;59848;48.158;11.512;2022-08-25T07:32:41;22.70;63.70
71978;DHT22;59848;48.158;11.512;2022-08-25T07:35:07;22.70;63.00
71978;DHT22;59848;48.158;11.512;2022-08-25T07:37:52;22.70;62.70
71978;DHT22;59848;48.158;11.512;2022-08-25T07:40:22;22.80;63.60
71978;DHT22;59848;48.158;11.512;2022-08-25T07:42:50;22.90;62.70
71978;DHT22;59848;48.158;11.512;2022-08-25T07:45:17;23.00;62.80
71978;DHT22;59848;48.158;11.512;2022-08-25T07:47:43;23.10;62.80
71978;DHT22;59848;48.158;11.512;2022-08-25T07:50:10;23.10;62.90
71978;DHT22;59848;48.158;11.512;2022-08-25T07:52:38;23.10;62.90
71978;DHT22;59848;48.158;11.512;2022-08-25T07:55:04;23.20;63.50
71978;DHT22;59848;48.158;11.512;2022-08-25T07:57:30;23.20;62.40
71978;DHT22;59848;48.158;11.512;2022-08-25T07:59:55;23.40;62.20
71978;DHT22;59848;48.158;11.512;2022-08-25T08:02:22;23.40;62.10
71978;DHT22;59848;48.158;11.512;2022-08-25T08:04:50;23.60;61.80
71978;DHT22;59848;48.158;11.512;2022-08-25T08:07:17;23.70;61.30
71978;DHT22;59848;48.158;11.512;2022-08-25T08:09:43;23.60;61.70
71978;DHT22;59848;48.158;11.512;2022-08-25T08:12:09;23.70;61.80
71978;DHT22;59848;48.158;11.512;2022-08-25T08:14:34;23.70;60.90
71978;DHT22;59848;48.158;11.512;2022-08-25T08:17:08;23.70;61.00
71978;DHT22;59848;48.158;11.512;2022-08-25T08:19:34;23.70;61.00
71978;DHT22;59848;48.158;11.512;2022-08-25T08:22:01;23.70;60.90
71978;DHT22;59848;48.158;11.512;2022-08-25T08:24:32;23.80;60.60
71978;DHT22;59848;48.158;11.512;2022-08-25T08:27:07;23.90;60.40
71978;DHT22;59848;48.158;11.512;2022-08-25T08:29:33;24.10;60.30
71978;DHT22;59848;48.158;11.512;2022-08-25T08:32:00;24.20;59.90
71978;DHT22;59848;48.158;11.512;2022-08-25T08:34:27;24.30;59.20
71978;DHT22;59848;48.158;11.512;2022-08-25T08:36:52;24.20;59.70
71978;DHT22;59848;48.158;11.512;2022-08-25T08:39:18;24.40;59.50
71978;DHT22;59848;48.158;11.512;2022-08-25T08:55:47;24.60;58.20
71978;DHT22;59848;48.158;11.512;2022-08-25T08:58:21;24.70;58.50
71978;DHT22;59848;48.158;11.512;2022-08-25T09:00:55;24.70;58.80
71978;DHT22;59848;48.158;11.512;2022-08-25T09:05:55;24.90;57.60
71978;DHT22;59848;48.158;11.512;2022-08-25T09:08:23;24.90;57.80
71978;DHT22;59848;48.158;11.512;2022-08-25T09:14:10;25.00;58.50
71978;DHT22;59848;48.158;11.512;2022-08-25T09:16:49;25.10;57.30
71978;DHT22;59848;48.158;11.512;2022-08-25T09:19:30;25.00;57.60
71978;DHT22;59848;48.158;11.512;2022-08-25T09:27:19;25.20;57.40
71978;DHT22;59848;48.158;11.512;2022-08-25T09:32:29;25.20;57.10
71978;DHT22;59848;48.158;11.512;2022-08-25T09:34:56;25.50;57.10
71978;DHT22;59848;48.158;11.512;2022-08-25T09:37:22;25.50;56.90
71978;DHT22;59848;48.158;11.512;2022-08-25T09:39:49;25.70;56.80
71978;DHT22;59848;48.158;11.512;2022-08-25T09:42:14;25.80;56.60
71978;DHT22;59848;48.158;11.512;2022-08-25T09:44:43;25.90;55.80
71978;DHT22;59848;48.158;11.512;2022-08-25T09:47:24;25.90;55.40
71978;DHT22;59848;48.158;11.512;2022-08-25T09:50:00;25.80;56.40
71978;DHT22;59848;48.158;11.512;2022-08-25T09:54:54;25.80;56.40
71978;DHT22;59848;48.158;11.512;2022-08-25T09:57:33;25.90;56.20
71978;DHT22;59848;48.158;11.512;2022-08-25T10:02:37;26.10;55.50
71978;DHT22;59848;48.158;11.512;2022-08-25T10:05:21;26.10;55.10
71978;DHT22;59848;48.158;11.512;2022-08-25T10:07:57;26.20;55.10
71978;DHT22;59848;48.158;11.512;2022-08-25T10:10:30;26.50;54.50
71978;DHT22;59848;48.158;11.512;2022-08-25T10:12:56;26.70;53.90
71978;DHT22;59848;48.158;11.512;2022-08-25T10:15:36;26.80;53.60
71978;DHT22;59848;48.158;11.512;2022-08-25T10:18:25;26.80;53.90
71978;DHT22;59848;48.158;11.512;2022-08-25T10:21:12;26.90;53.60
71978;DHT22;59848;48.158;11.512;2022-08-25T10:23:46;27.00;53.20
71978;DHT22;59848;48.158;11.512;2022-08-25T10:29:30;27.10;53.30
71978;DHT22;59848;48.158;11.512;2022-08-25T10:32:03;27.20;53.30
71978;DHT22;59848;48.158;11.512;2022-08-25T10:34:42;27.20;53.10
71978;DHT22;59848;48.158;11.512;2022-08-25T10:37:19;27.20;53.00
71978;DHT22;59848;48.158;11.512;2022-08-25T10:45:44;27.50;51.20
71978;DHT22;59848;48.158;11.512;2022-08-25T10:48:34;27.70;50.20
71978;DHT22;59848;48.158;11.512;2022-08-25T10:51:30;27.70;50.10
71978;DHT22;59848;48.158;11.512;2022-08-25T11:07:48;28.40;48.80
71978;DHT22;59848;48.158;11.512;2022-08-25T11:10:19;28.70;48.00
71978;DHT22;59848;48.158;11.512;2022-08-25T11:12:54;28.90;47.10
71978;DHT22;59848;48.158;11.512;2022-08-25T11:15:28;29.10;46.60
71978;DHT22;59848;48.158;11.512;2022-08-25T11:17:59;29.20;46.30
71978;DHT22;59848;48.158;11.512;2022-08-25T11:20:56;29.20;45.60
71978;DHT22;59848;48.158;11.512;2022-08-25T11:23:30;29.20;45.50
71978;DHT22;59848;48.158;11.512;2022-08-25T11:26:05;29.10;45.90
71978;DHT22;59848;48.158;11.512;2022-08-25T11:29:00;29.20;46.10
71978;DHT22;59848;48.158;11.512;2022-08-25T11:31:27;29.40;46.10
71978;DHT22;59848;48.158;11.512;2022-08-25T11:33:54;29.70;45.30
71978;DHT22;59848;48.158;11.512;2022-08-25T11:36:37;29.50;45.30
71978;DHT22;59848;48.158;11.512;2022-08-25T11:44:45;29.80;46.00
71978;DHT22;59848;48.158;11.512;2022-08-25T11:47:17;29.90;45.00
71978;DHT22;59848;48.158;11.512;2022-08-25T11:49:55;29.90;44.30
71978;DHT22;59848;48.158;11.512;2022-08-25T11:55:24;30.20;44.80
71978;DHT22;59848;48.158;11.512;2022-08-25T11:57:52;30.30;43.90
71978;DHT22;59848;48.158;11.512;2022-08-25T12:00:40;30.60;43.80
71978;DHT22;59848;48.158;11.512;2022-08-25T12:06:20;30.70;43.40
71978;DHT22;59848;48.158;11.512;2022-08-25T12:11:50;30.60;43.00
71978;DHT22;59848;48.158;11.512;2022-08-25T12:24:51;30.90;42.10
71978;DHT22;59848;48.158;11.512;2022-08-25T12:27:58;30.80;41.90
71978;DHT22;59848;48.158;11.512;2022-08-25T12:30:37;30.90;42.20
71978;DHT22;59848;48.158;11.512;2022-08-25T12:35:59;31.20;41.10
71978;DHT22;59848;48.158;11.512;2022-08-25T12:38:33;31.10;41.60
71978;DHT22;59848;48.158;11.512;2022-08-25T12:41:14;31.30;40.90
71978;DHT22;59848;48.158;11.512;2022-08-25T12:43:46;31.50;39.80
71978;DHT22;59848;48.158;11.512;2022-08-25T12:48:57;31.70;40.50
71978;DHT22;59848;48.158;11.512;2022-08-25T12:54:36;32.10;39.50
71978;DHT22;59848;48.158;11.512;2022-08-25T12:59:53;32.20;40.20
71978;DHT22;59848;48.158;11.512;2022-08-25T13:02:54;32.20;40.30
71978;DHT22;59848;48.158;11.512;2022-08-25T13:05:40;32.10;40.20
71978;DHT22;59848;48.158;11.512;2022-08-25T13:11:08;31.80;40.70
71978;DHT22;59848;48.158;11.512;2022-08-25T13:16:55;31.70;40.80
71978;DHT22;59848;48.158;11.512;2022-08-25T13:19:22;31.60;41.10
71978;DHT22;59848;48.158;11.512;2022-08-25T13:21:48;31.50;40.90
71978;DHT22;59848;48.158;11.512;2022-08-25T13:24:20;31.30;40.30
71978;DHT22;59848;48.158;11.512;2022-08-25T13:26:50;31.30;40.40
71978;DHT22;59848;48.158;11.512;2022-08-25T13:29:26;31.40;40.90
71978;DHT22;59848;48.158;11.512;2022-08-25T13:34:21;31.30;41.30
71978;DHT22;59848;48.158;11.512;2022-08-25T13:36:49;31.70;40.50
71978;DHT22;59848;48.158;11.512;2022-08-25T13:39:34;31.80;39.40
71978;DHT22;59848;48.158;11.512;2022-08-25T13:42:02;31.90;40.10
71978;DHT22;59848;48.158;11.512;2022-08-25T13:44:30;32.20;39.30
71978;DHT22;59848;48.158;11.512;2022-08-25T13:49:31;32.70;38.80
71978;DHT22;59848;48.158;11.512;2022-08-25T13:51:57;33.00;38.30
71978;DHT22;59848;48.158;11.512;2022-08-25T13:54:34;33.20;37.70
71978;DHT22;59848;48.158;11.512;2022-08-25T13:59:38;33.70;36.30
71978;DHT22;59848;48.158;11.512;2022-08-25T14:02:06;34.20;35.10
71978;DHT22;59848;48.158;11.512;2022-08-25T14:07:26;34.30;35.00
71978;DHT22;59848;48.158;11.512;2022-08-25T14:18:12;36.50;31.40
71978;DHT22;59848;48.158;11.512;2022-08-25T14:20:44;36.20;32.20
71978;DHT22;59848;48.158;11.512;2022-08-25T14:23:15;35.60;33.20
71978;DHT22;59848;48.158;11.512;2022-08-25T14:25:40;34.70;33.80
71978;DHT22;59848;48.158;11.512;2022-08-25T14:28:14;35.20;33.70
71978;DHT22;59848;48.158;11.512;2022-08-25T14:30:46;35.60;32.70
71978;DHT22;59848;48.158;11.512;2022-08-25T14:33:15;36.20;31.80
71978;DHT22;59848;48.158;11.512;2022-08-25T14:35:44;36.80;31.60
71978;DHT22;59848;48.158;11.512;2022-08-25T14:38:10;37.50;30.20
71978;DHT22;59848;48.158;11.512;2022-08-25T14:40:36;36.90;30.90
71978;DHT22;59848;48.158;11.512;2022-08-25T14:43:02;37.00;30.90
71978;DHT22;59848;48.158;11.512;2022-08-25T14:45:29;37.30;30.70
71978;DHT22;59848;48.158;11.512;2022-08-25T14:47:59;37.40;30.20
71978;DHT22;59848;48.158;11.512;2022-08-25T14:50:27;37.30;30.80
71978;DHT22;59848;48.158;11.512;2022-08-25T14:52:53;37.30;30.20
71978;DHT22;59848;48.158;11.512;2022-08-25T14:55:19;37.50;30.40
71978;DHT22;59848;48.158;11.512;2022-08-25T14:57:45;37.60;30.00
71978;DHT22;59848;48.158;11.512;2022-08-25T15:00:10;37.90;29.50
71978;DHT22;59848;48.158;11.512;2022-08-25T15:02:40;37.60;30.60
71978;DHT22;59848;48.158;11.512;2022-08-25T15:05:07;36.70;31.20
71978;DHT22;59848;48.158;11.512;2022-08-25T15:07:36;35.90;32.50
71978;DHT22;59848;48.158;11.512;2022-08-25T15:10:21;35.00;34.00
71978;DHT22;59848;48.158;11.512;2022-08-25T15:12:46;34.60;34.40
71978;DHT22;59848;48.158;11.512;2022-08-25T15:15:12;33.80;35.40
71978;DHT22;59848;48.158;11.512;2022-08-25T15:17:40;33.90;36.10
71978;DHT22;59848;48.158;11.512;2022-08-25T15:20:06;33.70;36.00
71978;DHT22;59848;48.158;11.512;2022-08-25T15:22:32;33.30;36.60
71978;DHT22;59848;48.158;11.512;2022-08-25T15:24:58;33.30;36.80
71978;DHT22;59848;48.158;11.512;2022-08-25T15:27:23;33.50;36.30
71978;DHT22;59848;48.158;11.512;2022-08-25T15:29:49;33.20;36.70
71978;DHT22;59848;48.158;11.512;2022-08-25T15:32:15;33.40;36.20
71978;DHT22;59848;48.158;11.512;2022-08-25T15:34:40;33.70;35.90
71978;DHT22;59848;48.158;11.512;2022-08-25T15:37:12;34.50;35.10
71978;DHT22;59848;48.158;11.512;2022-08-25T15:39:39;35.40;33.40
71978;DHT22;59848;48.158;11.512;2022-08-25T15:42:05;35.60;32.80
71978;DHT22;59848;48.158;11.512;2022-08-25T15:44:31;35.30;33.00
71978;DHT22;59848;48.158;11.512;2022-08-25T15:46:57;35.00;33.70
71978;DHT22;59848;48.158;11.512;2022-08-25T15:49:23;34.90;34.30
71978;DHT22;59848;48.158;11.512;2022-08-25T15:51:50;34.50;34.50
71978;DHT22;59848;48.158;11.512;2022-08-25T15:54:16;34.20;35.20
71978;DHT22;59848;48.158;11.512;2022-08-25T15:56:42;34.40;34.70
71978;DHT22;59848;48.158;11.512;2022-08-25T15:59:08;35.00;33.80
71978;DHT22;59848;48.158;11.512;2022-08-25T16:01:34;35.70;33.20
71978;DHT22;59848;48.158;11.512;2022-08-25T16:03:59;35.80;32.60
71978;DHT22;59848;48.158;11.512;2022-08-25T16:06:25;35.50;33.30
71978;DHT22;59848;48.158;11.512;2022-08-25T16:08:51;35.00;33.50
71978;DHT22;59848;48.158;11.512;2022-08-25T16:11:20;34.50;35.00
71978;DHT22;59848;48.158;11.512;2022-08-25T16:13:47;34.20;34.70
71978;DHT22;59848;48.158;11.512;2022-08-25T16:16:14;34.20;34.60
71978;DHT22;59848;48.158;11.512;2022-08-25T16:18:41;34.30;34.90
71978;DHT22;59848;48.158;11.512;2022-08-25T16:21:11;34.60;34.50
71978;DHT22;59848;48.158;11.512;2022-08-25T16:23:37;35.30;33.20
71978;DHT22;59848;48.158;11.512;2022-08-25T16:26:05;35.10;32.90
71978;DHT22;59848;48.158;11.512;2022-08-25T16:28:33;34.50;34.20
71978;DHT22;59848;48.158;11.512;2022-08-25T16:30:59;35.20;33.40
71978;DHT22;59848;48.158;11.512;2022-08-25T16:33:25;35.60;32.80
71978;DHT22;59848;48.158;11.512;2022-08-25T16:35:50;35.30;32.90
71978;DHT22;59848;48.158;11.512;2022-08-25T16:38:17;34.80;34.00
71978;DHT22;59848;48.158;11.512;2022-08-25T16:40:43;34.30;34.00
71978;DHT22;59848;48.158;11.512;2022-08-25T16:43:10;33.70;35.10
71978;DHT22;59848;48.158;11.512;2022-08-25T16:45:36;33.30;36.10
71978;DHT22;59848;48.158;11.512;2022-08-25T16:48:03;33.00;37.00
71978;DHT22;59848;48.158;11.512;2022-08-25T16:50:29;32.70;37.30
71978;DHT22;59848;48.158;11.512;2022-08-25T16:52:56;32.80;37.50
71978;DHT22;59848;48.158;11.512;2022-08-25T16:55:41;33.30;36.90
71978;DHT22;59848;48.158;11.512;2022-08-25T16:58:07;33.50;36.60
71978;DHT22;59848;48.158;11.512;2022-08-25T17:00:35;34.20;35.70
71978;DHT22;59848;48.158;11.512;2022-08-25T17:03:02;34.20;35.30
71978;DHT22;59848;48.158;11.512;2022-08-25T17:05:31;33.80;35.90
71978;DHT22;59848;48.158;11.512;2022-08-25T17:08:00;33.40;37.20
71978;DHT22;59848;48.158;11.512;2022-08-25T17:10:44;32.70;38.40
71978;DHT22;59848;48.158;11.512;2022-08-25T17:13:11;32.10;39.80
71978;DHT22;59848;48.158;11.512;2022-08-25T17:15:42;31.60;40.40
71978;DHT22;59848;48.158;11.512;2022-08-25T17:18:08;30.90;41.80
71978;DHT22;59848;48.158;11.512;2022-08-25T17:20:35;30.40;42.50
71978;DHT22;59848;48.158;11.512;2022-08-25T17:23:00;29.90;43.30